Terminal Aerodrome Forecast
Issued by NWS

Home | Current Version | Previous Version | Text Only | Print | Product List | Glossary Off
Versions: 1 2 3 4 5 6 7 8 9 10 11 12 13 14 15

000
FTUS43 KMPX 202300
TAFAXN
TAF
KAXN 202333Z 2100/2124 17010KT 6SM BR OVC006
     FM210400 17010KT 3SM BR OVC003
      TEMPO 2106/2110 1 1/2SM -SN BR OVC003
     FM211600 16010KT 5SM BR OVC006
     FM212000 15014KT 6SM BR OVC012=

USA.gov is the U.S. government's official web portal to all federal, state and local government web resources and services.